sensor_id;sensor_type;location;lat;lon;timestamp;P1;durP1;ratioP1;P2;durP2;ratioP2
8574;SDS011;4325;42.520;27.448;2024-03-07T00:00:43;15.57;;;9.73;;
8574;SDS011;4325;42.520;27.448;2024-03-07T00:03:10;16.20;;;9.23;;
8574;SDS011;4325;42.520;27.448;2024-03-07T00:05:38;16.07;;;9.90;;
8574;SDS011;4325;42.520;27.448;2024-03-07T00:08:05;18.33;;;9.70;;
8574;SDS011;4325;42.520;27.448;2024-03-07T00:10:32;16.23;;;9.13;;
8574;SDS011;4325;42.520;27.448;2024-03-07T00:13:01;14.27;;;8.60;;
8574;SDS011;4325;42.520;27.448;2024-03-07T00:15:28;16.40;;;10.00;;
8574;SDS011;4325;42.520;27.448;2024-03-07T00:17:57;15.40;;;9.67;;
8574;SDS011;4325;42.520;27.448;2024-03-07T00:20:25;18.60;;;9.43;;
8574;SDS011;4325;42.520;27.448;2024-03-07T00:22:52;13.97;;;9.40;;
8574;SDS011;4325;42.520;27.448;2024-03-07T00:25:20;14.90;;;9.47;;
8574;SDS011;4325;42.520;27.448;2024-03-07T00:27:47;18.67;;;9.57;;
8574;SDS011;4325;42.520;27.448;2024-03-07T00:30:17;14.63;;;9.40;;
8574;SDS011;4325;42.520;27.448;2024-03-07T00:32:45;17.60;;;9.10;;
8574;SDS011;4325;42.520;27.448;2024-03-07T00:35:13;15.53;;;9.20;;
8574;SDS011;4325;42.520;27.448;2024-03-07T00:37:42;19.70;;;9.60;;
8574;SDS011;4325;42.520;27.448;2024-03-07T00:40:10;15.63;;;9.80;;
8574;SDS011;4325;42.520;27.448;2024-03-07T00:42:38;18.50;;;9.83;;
8574;SDS011;4325;42.520;27.448;2024-03-07T00:45:05;15.03;;;9.20;;
8574;SDS011;4325;42.520;27.448;2024-03-07T00:47:33;18.60;;;10.63;;
8574;SDS011;4325;42.520;27.448;2024-03-07T00:50:00;16.70;;;10.20;;
8574;SDS011;4325;42.520;27.448;2024-03-07T00:52:28;21.87;;;11.07;;
8574;SDS011;4325;42.520;27.448;2024-03-07T00:54:55;15.00;;;9.17;;
8574;SDS011;4325;42.520;27.448;2024-03-07T00:57:22;19.80;;;10.67;;
8574;SDS011;4325;42.520;27.448;2024-03-07T00:59:49;17.17;;;9.93;;
8574;SDS011;4325;42.520;27.448;2024-03-07T01:02:16;16.03;;;9.63;;
8574;SDS011;4325;42.520;27.448;2024-03-07T01:04:43;17.40;;;10.20;;
8574;SDS011;4325;42.520;27.448;2024-03-07T01:07:10;15.77;;;10.37;;
8574;SDS011;4325;42.520;27.448;2024-03-07T01:09:39;19.10;;;11.17;;
8574;SDS011;4325;42.520;27.448;2024-03-07T01:12:06;18.43;;;11.07;;
8574;SDS011;4325;42.520;27.448;2024-03-07T01:14:35;19.70;;;11.30;;
8574;SDS011;4325;42.520;27.448;2024-03-07T01:17:02;16.00;;;9.63;;
8574;SDS011;4325;42.520;27.448;2024-03-07T01:19:32;19.07;;;10.30;;
8574;SDS011;4325;42.520;27.448;2024-03-07T01:21:59;18.77;;;11.03;;
8574;SDS011;4325;42.520;27.448;2024-03-07T01:24:26;22.83;;;11.80;;
8574;SDS011;4325;42.520;27.448;2024-03-07T01:26:54;30.77;;;12.67;;
8574;SDS011;4325;42.520;27.448;2024-03-07T01:29:21;21.23;;;11.63;;
8574;SDS011;4325;42.520;27.448;2024-03-07T01:31:49;17.17;;;9.97;;
8574;SDS011;4325;42.520;27.448;2024-03-07T01:34:16;17.23;;;11.13;;
8574;SDS011;4325;42.520;27.448;2024-03-07T01:36:43;16.80;;;10.10;;
8574;SDS011;4325;42.520;27.448;2024-03-07T01:39:10;21.20;;;10.53;;
8574;SDS011;4325;42.520;27.448;2024-03-07T01:41:37;19.50;;;9.27;;
8574;SDS011;4325;42.520;27.448;2024-03-07T01:44:07;16.60;;;9.43;;
8574;SDS011;4325;42.520;27.448;2024-03-07T01:46:34;20.07;;;10.40;;
8574;SDS011;4325;42.520;27.448;2024-03-07T01:49:01;23.53;;;11.03;;
8574;SDS011;4325;42.520;27.448;2024-03-07T01:51:28;17.83;;;9.27;;
8574;SDS011;4325;42.520;27.448;2024-03-07T01:53:55;19.37;;;10.53;;
8574;SDS011;4325;42.520;27.448;2024-03-07T01:56:22;21.50;;;9.67;;
8574;SDS011;4325;42.520;27.448;2024-03-07T01:58:50;17.47;;;9.90;;
8574;SDS011;4325;42.520;27.448;2024-03-07T02:01:19;17.37;;;10.70;;
8574;SDS011;4325;42.520;27.448;2024-03-07T02:03:47;14.30;;;9.80;;
8574;SDS011;4325;42.520;27.448;2024-03-07T02:06:14;19.97;;;10.67;;
8574;SDS011;4325;42.520;27.448;2024-03-07T02:08:41;20.43;;;10.43;;
8574;SDS011;4325;42.520;27.448;2024-03-07T02:11:08;19.80;;;10.80;;
8574;SDS011;4325;42.520;27.448;2024-03-07T02:13:35;21.67;;;12.60;;
8574;SDS011;4325;42.520;27.448;2024-03-07T02:16:03;19.53;;;11.47;;
8574;SDS011;4325;42.520;27.448;2024-03-07T02:18:31;24.30;;;12.60;;
8574;SDS011;4325;42.520;27.448;2024-03-07T02:21:00;20.13;;;11.03;;
8574;SDS011;4325;42.520;27.448;2024-03-07T02:23:32;19.93;;;10.90;;
8574;SDS011;4325;42.520;27.448;2024-03-07T02:26:00;18.40;;;11.43;;
8574;SDS011;4325;42.520;27.448;2024-03-07T02:28:27;22.27;;;11.73;;
8574;SDS011;4325;42.520;27.448;2024-03-07T02:30:54;24.00;;;12.20;;
8574;SDS011;4325;42.520;27.448;2024-03-07T02:33:21;23.13;;;11.10;;
8574;SDS011;4325;42.520;27.448;2024-03-07T02:35:48;18.50;;;11.13;;
8574;SDS011;4325;42.520;27.448;2024-03-07T02:38:17;18.50;;;11.27;;
8574;SDS011;4325;42.520;27.448;2024-03-07T02:40:44;20.20;;;11.97;;
8574;SDS011;4325;42.520;27.448;2024-03-07T02:43:12;23.43;;;11.17;;
8574;SDS011;4325;42.520;27.448;2024-03-07T02:45:39;20.10;;;11.90;;
8574;SDS011;4325;42.520;27.448;2024-03-07T02:48:06;18.40;;;11.03;;
8574;SDS011;4325;42.520;27.448;2024-03-07T02:50:34;18.00;;;10.40;;
8574;SDS011;4325;42.520;27.448;2024-03-07T02:53:02;19.73;;;11.40;;
8574;SDS011;4325;42.520;27.448;2024-03-07T02:55:31;18.73;;;10.67;;
8574;SDS011;4325;42.520;27.448;2024-03-07T02:57:59;19.10;;;9.97;;
8574;SDS011;4325;42.520;27.448;2024-03-07T03:00:26;18.93;;;10.90;;
8574;SDS011;4325;42.520;27.448;2024-03-07T03:02:55;20.10;;;11.17;;
8574;SDS011;4325;42.520;27.448;2024-03-07T03:05:22;19.83;;;11.87;;
8574;SDS011;4325;42.520;27.448;2024-03-07T03:07:49;18.77;;;10.53;;
8574;SDS011;4325;42.520;27.448;2024-03-07T03:10:20;19.50;;;10.83;;
8574;SDS011;4325;42.520;27.448;2024-03-07T03:12:53;17.90;;;10.70;;
8574;SDS011;4325;42.520;27.448;2024-03-07T03:15:21;19.27;;;11.10;;
8574;SDS011;4325;42.520;27.448;2024-03-07T03:17:48;15.40;;;9.60;;
8574;SDS011;4325;42.520;27.448;2024-03-07T03:20:15;21.20;;;10.63;;
8574;SDS011;4325;42.520;27.448;2024-03-07T03:22:50;19.90;;;11.53;;
8574;SDS011;4325;42.520;27.448;2024-03-07T03:25:19;20.63;;;11.20;;
8574;SDS011;4325;42.520;27.448;2024-03-07T03:27:48;27.63;;;12.10;;
8574;SDS011;4325;42.520;27.448;2024-03-07T03:30:17;22.30;;;12.60;;
8574;SDS011;4325;42.520;27.448;2024-03-07T03:32:45;19.90;;;11.77;;
8574;SDS011;4325;42.520;27.448;2024-03-07T03:35:13;21.07;;;12.23;;
8574;SDS011;4325;42.520;27.448;2024-03-07T03:37:41;18.53;;;11.07;;
8574;SDS011;4325;42.520;27.448;2024-03-07T03:40:09;22.60;;;11.93;;
8574;SDS011;4325;42.520;27.448;2024-03-07T03:42:38;20.47;;;10.97;;
8574;SDS011;4325;42.520;27.448;2024-03-07T03:45:06;21.30;;;12.00;;
8574;SDS011;4325;42.520;27.448;2024-03-07T03:47:36;21.23;;;11.90;;
8574;SDS011;4325;42.520;27.448;2024-03-07T03:50:04;25.00;;;13.07;;
8574;SDS011;4325;42.520;27.448;2024-03-07T03:52:32;26.90;;;11.90;;
8574;SDS011;4325;42.520;27.448;2024-03-07T03:55:00;20.93;;;12.90;;
8574;SDS011;4325;42.520;27.448;2024-03-07T03:57:28;26.17;;;12.63;;
8574;SDS011;4325;42.520;27.448;2024-03-07T03:59:55;23.37;;;13.63;;
8574;SDS011;4325;42.520;27.448;2024-03-07T04:02:23;25.80;;;14.67;;
8574;SDS011;4325;42.520;27.448;2024-03-07T04:04:51;26.93;;;14.47;;
8574;SDS011;4325;42.520;27.448;2024-03-07T04:07:19;24.33;;;12.53;;
8574;SDS011;4325;42.520;27.448;2024-03-07T04:09:46;26.60;;;13.60;;
8574;SDS011;4325;42.520;27.448;2024-03-07T04:12:14;22.13;;;13.17;;
8574;SDS011;4325;42.520;27.448;2024-03-07T04:14:41;23.70;;;13.83;;
8574;SDS011;4325;42.520;27.448;2024-03-07T04:17:09;30.87;;;15.90;;
8574;SDS011;4325;42.520;27.448;2024-03-07T04:19:38;23.67;;;13.30;;
8574;SDS011;4325;42.520;27.448;2024-03-07T04:22:08;25.80;;;13.90;;
8574;SDS011;4325;42.520;27.448;2024-03-07T04:24:35;28.67;;;14.30;;
8574;SDS011;4325;42.520;27.448;2024-03-07T04:27:03;26.83;;;13.97;;
8574;SDS011;4325;42.520;27.448;2024-03-07T04:29:31;22.87;;;14.30;;
8574;SDS011;4325;42.520;27.448;2024-03-07T04:31:58;31.53;;;15.90;;
8574;SDS011;4325;42.520;27.448;2024-03-07T04:34:26;31.67;;;19.90;;
8574;SDS011;4325;42.520;27.448;2024-03-07T04:36:56;31.17;;;18.67;;
8574;SDS011;4325;42.520;27.448;2024-03-07T04:39:25;33.93;;;16.60;;
8574;SDS011;4325;42.520;27.448;2024-03-07T04:41:57;27.23;;;14.93;;
8574;SDS011;4325;42.520;27.448;2024-03-07T04:44:25;29.70;;;16.47;;
8574;SDS011;4325;42.520;27.448;2024-03-07T04:46:52;29.33;;;14.80;;
8574;SDS011;4325;42.520;27.448;2024-03-07T04:49:22;26.73;;;14.77;;
8574;SDS011;4325;42.520;27.448;2024-03-07T04:51:50;27.47;;;14.43;;
8574;SDS011;4325;42.520;27.448;2024-03-07T04:54:17;28.27;;;15.47;;
8574;SDS011;4325;42.520;27.448;2024-03-07T04:56:46;27.27;;;15.53;;
8574;SDS011;4325;42.520;27.448;2024-03-07T04:59:13;23.83;;;13.77;;
8574;SDS011;4325;42.520;27.448;2024-03-07T05:01:41;28.07;;;14.87;;
8574;SDS011;4325;42.520;27.448;2024-03-07T05:04:09;27.33;;;15.53;;
8574;SDS011;4325;42.520;27.448;2024-03-07T05:06:38;35.50;;;17.33;;
8574;SDS011;4325;42.520;27.448;2024-03-07T05:09:06;28.10;;;13.87;;
8574;SDS011;4325;42.520;27.448;2024-03-07T05:11:35;27.80;;;13.10;;
8574;SDS011;4325;42.520;27.448;2024-03-07T05:14:04;29.43;;;15.17;;
8574;SDS011;4325;42.520;27.448;2024-03-07T05:16:31;23.37;;;13.60;;
8574;SDS011;4325;42.520;27.448;2024-03-07T05:18:58;26.13;;;13.40;;
8574;SDS011;4325;42.520;27.448;2024-03-07T05:21:25;22.77;;;12.90;;
8574;SDS011;4325;42.520;27.448;2024-03-07T05:24:05;31.27;;;15.67;;
8574;SDS011;4325;42.520;27.448;2024-03-07T05:26:33;21.47;;;12.03;;
8574;SDS011;4325;42.520;27.448;2024-03-07T05:29:04;18.00;;;10.10;;
8574;SDS011;4325;42.520;27.448;2024-03-07T05:31:33;16.67;;;10.10;;
8574;SDS011;4325;42.520;27.448;2024-03-07T05:34:00;25.57;;;12.27;;
8574;SDS011;4325;42.520;27.448;2024-03-07T05:36:30;21.10;;;12.27;;
8574;SDS011;4325;42.520;27.448;2024-03-07T05:38:57;16.90;;;12.00;;
8574;SDS011;4325;42.520;27.448;2024-03-07T05:41:26;22.13;;;12.27;;
8574;SDS011;4325;42.520;27.448;2024-03-07T05:43:55;19.47;;;11.00;;
8574;SDS011;4325;42.520;27.448;2024-03-07T05:46:23;28.17;;;13.07;;
8574;SDS011;4325;42.520;27.448;2024-03-07T05:48:50;23.33;;;12.63;;
8574;SDS011;4325;42.520;27.448;2024-03-07T05:51:21;37.27;;;14.90;;
8574;SDS011;4325;42.520;27.448;2024-03-07T05:53:49;36.30;;;14.97;;
8574;SDS011;4325;42.520;27.448;2024-03-07T05:56:16;29.10;;;12.57;;
8574;SDS011;4325;42.520;27.448;2024-03-07T05:58:45;34.57;;;13.07;;
8574;SDS011;4325;42.520;27.448;2024-03-07T06:01:12;27.40;;;14.13;;
8574;SDS011;4325;42.520;27.448;2024-03-07T06:03:40;25.97;;;13.47;;
8574;SDS011;4325;42.520;27.448;2024-03-07T06:06:07;32.43;;;14.17;;
8574;SDS011;4325;42.520;27.448;2024-03-07T06:08:36;29.73;;;12.67;;
8574;SDS011;4325;42.520;27.448;2024-03-07T06:11:03;23.10;;;12.37;;
8574;SDS011;4325;42.520;27.448;2024-03-07T06:13:31;22.87;;;12.53;;
8574;SDS011;4325;42.520;27.448;2024-03-07T06:15:58;22.90;;;12.13;;
8574;SDS011;4325;42.520;27.448;2024-03-07T06:18:29;18.20;;;12.37;;
8574;SDS011;4325;42.520;27.448;2024-03-07T06:20:58;30.63;;;11.93;;
8574;SDS011;4325;42.520;27.448;2024-03-07T06:23:25;19.63;;;10.97;;
8574;SDS011;4325;42.520;27.448;2024-03-07T06:25:54;19.97;;;11.40;;
8574;SDS011;4325;42.520;27.448;2024-03-07T06:28:23;25.30;;;10.57;;
8574;SDS011;4325;42.520;27.448;2024-03-07T06:30:50;23.23;;;11.27;;
8574;SDS011;4325;42.520;27.448;2024-03-07T06:33:18;17.13;;;10.37;;
8574;SDS011;4325;42.520;27.448;2024-03-07T06:35:45;17.43;;;10.77;;
8574;SDS011;4325;42.520;27.448;2024-03-07T06:38:14;22.63;;;10.50;;
8574;SDS011;4325;42.520;27.448;2024-03-07T06:40:41;17.67;;;9.27;;
8574;SDS011;4325;42.520;27.448;2024-03-07T06:43:09;15.83;;;9.00;;
8574;SDS011;4325;42.520;27.448;2024-03-07T06:45:36;15.10;;;8.93;;
8574;SDS011;4325;42.520;27.448;2024-03-07T06:48:04;15.83;;;9.37;;
8574;SDS011;4325;42.520;27.448;2024-03-07T06:50:33;14.20;;;9.03;;
8574;SDS011;4325;42.520;27.448;2024-03-07T06:53:00;17.80;;;9.20;;
8574;SDS011;4325;42.520;27.448;2024-03-07T06:55:28;15.20;;;8.90;;
8574;SDS011;4325;42.520;27.448;2024-03-07T06:57:56;14.43;;;8.30;;
8574;SDS011;4325;42.520;27.448;2024-03-07T07:00:23;16.07;;;9.37;;
8574;SDS011;4325;42.520;27.448;2024-03-07T07:02:51;19.60;;;9.47;;
8574;SDS011;4325;42.520;27.448;2024-03-07T07:05:20;13.37;;;8.80;;
8574;SDS011;4325;42.520;27.448;2024-03-07T07:07:48;14.17;;;9.10;;
8574;SDS011;4325;42.520;27.448;2024-03-07T07:10:16;12.97;;;8.80;;
8574;SDS011;4325;42.520;27.448;2024-03-07T07:12:45;21.27;;;8.87;;
8574;SDS011;4325;42.520;27.448;2024-03-07T07:15:13;14.47;;;8.13;;
8574;SDS011;4325;42.520;27.448;2024-03-07T07:17:43;16.03;;;9.23;;
8574;SDS011;4325;42.520;27.448;2024-03-07T07:20:12;14.93;;;9.40;;
8574;SDS011;4325;42.520;27.448;2024-03-07T07:22:40;15.47;;;10.03;;
8574;SDS011;4325;42.520;27.448;2024-03-07T07:25:08;13.67;;;9.40;;
8574;SDS011;4325;42.520;27.448;2024-03-07T07:27:39;15.20;;;9.50;;
8574;SDS011;4325;42.520;27.448;2024-03-07T07:30:10;17.63;;;10.30;;
8574;SDS011;4325;42.520;27.448;2024-03-07T07:32:38;13.87;;;9.83;;
8574;SDS011;4325;42.520;27.448;2024-03-07T07:35:06;13.80;;;9.93;;
8574;SDS011;4325;42.520;27.448;2024-03-07T07:37:37;17.43;;;10.53;;
8574;SDS011;4325;42.520;27.448;2024-03-07T07:40:05;15.17;;;11.17;;
8574;SDS011;4325;42.520;27.448;2024-03-07T07:42:34;19.33;;;10.70;;
8574;SDS011;4325;42.520;27.448;2024-03-07T07:45:05;16.17;;;10.53;;
8574;SDS011;4325;42.520;27.448;2024-03-07T07:47:38;20.10;;;12.20;;
8574;SDS011;4325;42.520;27.448;2024-03-07T07:50:06;16.37;;;10.97;;
8574;SDS011;4325;42.520;27.448;2024-03-07T07:52:40;14.97;;;10.63;;
8574;SDS011;4325;42.520;27.448;2024-03-07T07:55:08;16.23;;;10.70;;
8574;SDS011;4325;42.520;27.448;2024-03-07T07:57:40;15.93;;;11.53;;
8574;SDS011;4325;42.520;27.448;2024-03-07T08:00:09;16.87;;;11.43;;
8574;SDS011;4325;42.520;27.448;2024-03-07T08:02:49;17.93;;;10.60;;
8574;SDS011;4325;42.520;27.448;2024-03-07T08:05:17;21.77;;;13.57;;
8574;SDS011;4325;42.520;27.448;2024-03-07T08:07:45;14.80;;;11.03;;
8574;SDS011;4325;42.520;27.448;2024-03-07T08:10:13;21.30;;;10.97;;
8574;SDS011;4325;42.520;27.448;2024-03-07T08:12:41;18.23;;;10.63;;
8574;SDS011;4325;42.520;27.448;2024-03-07T08:15:09;15.43;;;10.30;;
8574;SDS011;4325;42.520;27.448;2024-03-07T08:17:39;21.80;;;11.00;;
8574;SDS011;4325;42.520;27.448;2024-03-07T08:20:10;23.03;;;10.87;;
8574;SDS011;4325;42.520;27.448;2024-03-07T08:22:38;15.17;;;10.67;;
8574;SDS011;4325;42.520;27.448;2024-03-07T08:25:07;15.53;;;10.23;;
8574;SDS011;4325;42.520;27.448;2024-03-07T08:27:36;18.23;;;10.83;;
8574;SDS011;4325;42.520;27.448;2024-03-07T08:30:04;16.83;;;11.03;;
8574;SDS011;4325;42.520;27.448;2024-03-07T08:32:33;15.97;;;10.50;;
8574;SDS011;4325;42.520;27.448;2024-03-07T08:35:02;17.27;;;11.20;;
8574;SDS011;4325;42.520;27.448;2024-03-07T08:37:34;16.87;;;10.90;;
8574;SDS011;4325;42.520;27.448;2024-03-07T08:40:02;16.23;;;10.57;;
8574;SDS011;4325;42.520;27.448;2024-03-07T08:42:32;18.67;;;11.83;;
8574;SDS011;4325;42.520;27.448;2024-03-07T08:45:00;20.30;;;10.77;;
8574;SDS011;4325;42.520;27.448;2024-03-07T08:47:29;14.67;;;10.13;;
8574;SDS011;4325;42.520;27.448;2024-03-07T08:49:57;21.83;;;12.63;;
8574;SDS011;4325;42.520;27.448;2024-03-07T08:52:24;17.87;;;11.53;;
8574;SDS011;4325;42.520;27.448;2024-03-07T08:54:53;13.40;;;9.83;;
8574;SDS011;4325;42.520;27.448;2024-03-07T08:57:20;15.83;;;12.17;;
8574;SDS011;4325;42.520;27.448;2024-03-07T08:59:47;13.80;;;10.23;;
8574;SDS011;4325;42.520;27.448;2024-03-07T09:02:15;17.63;;;10.00;;
8574;SDS011;4325;42.520;27.448;2024-03-07T09:04:42;13.77;;;9.07;;
8574;SDS011;4325;42.520;27.448;2024-03-07T09:07:09;17.80;;;10.07;;
8574;SDS011;4325;42.520;27.448;2024-03-07T09:09:36;12.23;;;9.47;;
8574;SDS011;4325;42.520;27.448;2024-03-07T09:12:05;12.30;;;10.23;;
8574;SDS011;4325;42.520;27.448;2024-03-07T09:14:32;12.80;;;10.43;;
8574;SDS011;4325;42.520;27.448;2024-03-07T09:17:00;12.93;;;10.00;;
8574;SDS011;4325;42.520;27.448;2024-03-07T09:19:29;23.93;;;11.63;;
8574;SDS011;4325;42.520;27.448;2024-03-07T09:21:56;13.77;;;11.23;;
8574;SDS011;4325;42.520;27.448;2024-03-07T09:24:23;15.63;;;11.17;;
8574;SDS011;4325;42.520;27.448;2024-03-07T09:26:50;19.50;;;11.37;;
8574;SDS011;4325;42.520;27.448;2024-03-07T09:29:23;16.00;;;10.17;;
8574;SDS011;4325;42.520;27.448;2024-03-07T09:31:50;14.77;;;10.27;;
8574;SDS011;4325;42.520;27.448;2024-03-07T09:34:18;14.07;;;10.00;;
8574;SDS011;4325;42.520;27.448;2024-03-07T09:36:46;17.10;;;9.80;;
8574;SDS011;4325;42.520;27.448;2024-03-07T09:39:14;16.70;;;9.13;;
8574;SDS011;4325;42.520;27.448;2024-03-07T09:41:41;15.50;;;9.97;;
8574;SDS011;4325;42.520;27.448;2024-03-07T09:44:09;14.13;;;9.93;;
8574;SDS011;4325;42.520;27.448;2024-03-07T09:46:40;13.07;;;9.63;;
8574;SDS011;4325;42.520;27.448;2024-03-07T09:49:07;14.10;;;9.80;;
8574;SDS011;4325;42.520;27.448;2024-03-07T09:51:38;14.73;;;10.07;;
8574;SDS011;4325;42.520;27.448;2024-03-07T09:54:05;15.00;;;8.77;;
8574;SDS011;4325;42.520;27.448;2024-03-07T09:56:33;12.67;;;9.77;;
8574;SDS011;4325;42.520;27.448;2024-03-07T09:59:03;12.87;;;9.47;;
8574;SDS011;4325;42.520;27.448;2024-03-07T10:01:32;12.67;;;8.63;;
8574;SDS011;4325;42.520;27.448;2024-03-07T10:04:02;16.43;;;9.40;;
8574;SDS011;4325;42.520;27.448;2024-03-07T10:06:37;15.70;;;9.33;;
8574;SDS011;4325;42.520;27.448;2024-03-07T10:09:05;14.65;;;9.48;;
8574;SDS011;4325;42.520;27.448;2024-03-07T10:11:33;12.05;;;9.35;;
8574;SDS011;4325;42.520;27.448;2024-03-07T10:14:00;12.43;;;9.05;;
8574;SDS011;4325;42.520;27.448;2024-03-07T10:16:30;17.60;;;8.63;;
8574;SDS011;4325;42.520;27.448;2024-03-07T10:18:57;11.38;;;9.32;;
8574;SDS011;4325;42.520;27.448;2024-03-07T10:21:27;9.60;;;8.38;;
8574;SDS011;4325;42.520;27.448;2024-03-07T10:24:03;11.07;;;8.35;;
8574;SDS011;4325;42.520;27.448;2024-03-07T10:26:32;13.52;;;9.20;;
8574;SDS011;4325;42.520;27.448;2024-03-07T10:29:01;14.55;;;9.10;;
8574;SDS011;4325;42.520;27.448;2024-03-07T10:31:28;9.93;;;8.25;;
8574;SDS011;4325;42.520;27.448;2024-03-07T10:33:58;9.40;;;8.38;;
8574;SDS011;4325;42.520;27.448;2024-03-07T10:36:28;15.20;;;9.77;;
8574;SDS011;4325;42.520;27.448;2024-03-07T10:38:57;13.07;;;8.90;;
8574;SDS011;4325;42.520;27.448;2024-03-07T10:41:26;10.30;;;8.73;;
8574;SDS011;4325;42.520;27.448;2024-03-07T10:43:56;12.57;;;8.50;;
8574;SDS011;4325;42.520;27.448;2024-03-07T10:46:25;12.43;;;8.80;;
8574;SDS011;4325;42.520;27.448;2024-03-07T10:48:54;14.63;;;8.67;;
8574;SDS011;4325;42.520;27.448;2024-03-07T10:51:25;14.47;;;8.80;;
8574;SDS011;4325;42.520;27.448;2024-03-07T10:53:59;13.87;;;9.00;;
8574;SDS011;4325;42.520;27.448;2024-03-07T10:56:39;11.37;;;8.73;;
8574;SDS011;4325;42.520;27.448;2024-03-07T10:59:20;16.00;;;10.17;;
8574;SDS011;4325;42.520;27.448;2024-03-07T11:01:53;15.63;;;9.37;;
8574;SDS011;4325;42.520;27.448;2024-03-07T11:04:27;13.93;;;8.97;;
8574;SDS011;4325;42.520;27.448;2024-03-07T11:06:55;13.10;;;8.93;;
8574;SDS011;4325;42.520;27.448;2024-03-07T11:09:25;13.23;;;9.30;;
8574;SDS011;4325;42.520;27.448;2024-03-07T11:11:58;12.27;;;8.80;;
8574;SDS011;4325;42.520;27.448;2024-03-07T11:14:28;15.03;;;9.83;;
8574;SDS011;4325;42.520;27.448;2024-03-07T11:16:57;15.97;;;9.43;;
8574;SDS011;4325;42.520;27.448;2024-03-07T11:19:26;11.57;;;9.00;;
8574;SDS011;4325;42.520;27.448;2024-03-07T11:21:55;10.97;;;8.87;;
8574;SDS011;4325;42.520;27.448;2024-03-07T11:24:23;12.10;;;9.30;;
8574;SDS011;4325;42.520;27.448;2024-03-07T11:26:56;12.93;;;8.90;;
8574;SDS011;4325;42.520;27.448;2024-03-07T11:29:39;18.50;;;8.93;;
8574;SDS011;4325;42.520;27.448;2024-03-07T11:32:10;14.43;;;9.00;;
8574;SDS011;4325;42.520;27.448;2024-03-07T11:34:38;16.93;;;9.17;;
8574;SDS011;4325;42.520;27.448;2024-03-07T11:37:07;16.53;;;9.17;;
8574;SDS011;4325;42.520;27.448;2024-03-07T11:39:44;17.33;;;9.23;;
8574;SDS011;4325;42.520;27.448;2024-03-07T11:42:19;21.00;;;10.53;;
8574;SDS011;4325;42.520;27.448;2024-03-07T11:47:45;16.47;;;10.53;;
8574;SDS011;4325;42.520;27.448;2024-03-07T11:50:13;12.93;;;10.10;;
8574;SDS011;4325;42.520;27.448;2024-03-07T11:52:45;12.97;;;10.07;;
8574;SDS011;4325;42.520;27.448;2024-03-07T11:55:13;15.57;;;10.97;;
8574;SDS011;4325;42.520;27.448;2024-03-07T11:57:41;16.27;;;9.00;;
8574;SDS011;4325;42.520;27.448;2024-03-07T12:00:10;12.07;;;9.30;;
8574;SDS011;4325;42.520;27.448;2024-03-07T12:02:38;15.83;;;9.27;;
8574;SDS011;4325;42.520;27.448;2024-03-07T12:05:06;14.00;;;8.70;;
8574;SDS011;4325;42.520;27.448;2024-03-07T12:07:33;14.37;;;9.57;;
8574;SDS011;4325;42.520;27.448;2024-03-07T12:10:01;13.93;;;9.50;;
8574;SDS011;4325;42.520;27.448;2024-03-07T12:12:31;18.77;;;11.37;;
8574;SDS011;4325;42.520;27.448;2024-03-07T12:14:59;17.60;;;11.53;;
8574;SDS011;4325;42.520;27.448;2024-03-07T12:17:27;16.97;;;11.10;;
8574;SDS011;4325;42.520;27.448;2024-03-07T12:19:55;17.27;;;11.07;;
8574;SDS011;4325;42.520;27.448;2024-03-07T12:22:26;16.30;;;11.33;;
8574;SDS011;4325;42.520;27.448;2024-03-07T12:25:01;19.50;;;11.63;;
8574;SDS011;4325;42.520;27.448;2024-03-07T12:27:34;15.20;;;9.73;;
8574;SDS011;4325;42.520;27.448;2024-03-07T12:30:04;17.90;;;10.43;;
8574;SDS011;4325;42.520;27.448;2024-03-07T12:32:47;19.47;;;11.10;;
8574;SDS011;4325;42.520;27.448;2024-03-07T12:35:15;18.57;;;11.83;;
8574;SDS011;4325;42.520;27.448;2024-03-07T12:37:42;19.80;;;11.23;;
8574;SDS011;4325;42.520;27.448;2024-03-07T12:40:12;18.33;;;11.27;;
8574;SDS011;4325;42.520;27.448;2024-03-07T12:42:47;20.83;;;11.10;;
8574;SDS011;4325;42.520;27.448;2024-03-07T12:45:15;17.07;;;10.10;;
8574;SDS011;4325;42.520;27.448;2024-03-07T12:47:43;16.47;;;10.50;;
8574;SDS011;4325;42.520;27.448;2024-03-07T12:50:12;16.03;;;11.23;;
8574;SDS011;4325;42.520;27.448;2024-03-07T12:52:39;20.03;;;10.60;;
8574;SDS011;4325;42.520;27.448;2024-03-07T12:55:06;18.13;;;10.70;;
8574;SDS011;4325;42.520;27.448;2024-03-07T12:57:34;17.60;;;9.70;;
8574;SDS011;4325;42.520;27.448;2024-03-07T13:00:07;17.27;;;8.97;;
8574;SDS011;4325;42.520;27.448;2024-03-07T13:02:44;16.53;;;9.30;;
8574;SDS011;4325;42.520;27.448;2024-03-07T13:05:12;15.83;;;7.50;;
8574;SDS011;4325;42.520;27.448;2024-03-07T13:07:45;10.87;;;7.83;;
8574;SDS011;4325;42.520;27.448;2024-03-07T13:10:13;13.47;;;7.33;;
8574;SDS011;4325;42.520;27.448;2024-03-07T13:12:41;10.17;;;7.50;;
8574;SDS011;4325;42.520;27.448;2024-03-07T13:15:12;12.10;;;8.03;;
8574;SDS011;4325;42.520;27.448;2024-03-07T13:17:39;10.47;;;7.13;;
8574;SDS011;4325;42.520;27.448;2024-03-07T13:20:08;11.07;;;7.57;;
8574;SDS011;4325;42.520;27.448;2024-03-07T13:22:40;13.87;;;8.07;;
8574;SDS011;4325;42.520;27.448;2024-03-07T13:25:09;11.20;;;7.07;;
8574;SDS011;4325;42.520;27.448;2024-03-07T13:27:44;14.33;;;7.27;;
8574;SDS011;4325;42.520;27.448;2024-03-07T13:30:22;15.17;;;7.83;;
8574;SDS011;4325;42.520;27.448;2024-03-07T13:32:52;14.83;;;7.27;;
8574;SDS011;4325;42.520;27.448;2024-03-07T13:35:21;16.80;;;7.67;;
8574;SDS011;4325;42.520;27.448;2024-03-07T13:37:49;16.93;;;7.50;;
8574;SDS011;4325;42.520;27.448;2024-03-07T13:40:16;11.33;;;7.13;;
8574;SDS011;4325;42.520;27.448;2024-03-07T13:42:53;16.23;;;7.93;;
8574;SDS011;4325;42.520;27.448;2024-03-07T13:45:23;11.30;;;7.03;;
8574;SDS011;4325;42.520;27.448;2024-03-07T13:47:51;10.70;;;6.63;;
8574;SDS011;4325;42.520;27.448;2024-03-07T13:50:20;15.47;;;7.23;;
8574;SDS011;4325;42.520;27.448;2024-03-07T13:52:47;11.43;;;6.63;;
8574;SDS011;4325;42.520;27.448;2024-03-07T13:55:40;11.50;;;6.40;;
8574;SDS011;4325;42.520;27.448;2024-03-07T13:58:17;9.73;;;7.00;;
8574;SDS011;4325;42.520;27.448;2024-03-07T14:01:00;11.53;;;6.50;;
8574;SDS011;4325;42.520;27.448;2024-03-07T14:06:49;10.00;;;6.03;;
8574;SDS011;4325;42.520;27.448;2024-03-07T14:09:50;12.03;;;6.27;;
8574;SDS011;4325;42.520;27.448;2024-03-07T14:12:48;11.67;;;6.33;;
8574;SDS011;4325;42.520;27.448;2024-03-07T14:21:53;11.10;;;7.60;;
8574;SDS011;4325;42.520;27.448;2024-03-07T14:27:32;17.30;;;8.50;;
8574;SDS011;4325;42.520;27.448;2024-03-07T14:30:10;13.20;;;9.00;;
8574;SDS011;4325;42.520;27.448;2024-03-07T14:32:49;20.90;;;10.43;;
8574;SDS011;4325;42.520;27.448;2024-03-07T14:35:22;28.33;;;10.93;;
8574;SDS011;4325;42.520;27.448;2024-03-07T14:37:55;19.40;;;9.87;;
8574;SDS011;4325;42.520;27.448;2024-03-07T14:40:32;18.70;;;9.40;;
8574;SDS011;4325;42.520;27.448;2024-03-07T14:43:01;18.47;;;10.17;;
8574;SDS011;4325;42.520;27.448;2024-03-07T14:45:32;17.70;;;10.13;;
8574;SDS011;4325;42.520;27.448;2024-03-07T14:48:05;17.20;;;10.63;;
8574;SDS011;4325;42.520;27.448;2024-03-07T14:50:35;19.13;;;10.03;;
8574;SDS011;4325;42.520;27.448;2024-03-07T14:53:03;18.27;;;10.70;;
8574;SDS011;4325;42.520;27.448;2024-03-07T14:55:31;20.40;;;10.03;;
8574;SDS011;4325;42.520;27.448;2024-03-07T14:57:58;23.53;;;10.87;;
8574;SDS011;4325;42.520;27.448;2024-03-07T15:00:26;14.70;;;10.30;;
8574;SDS011;4325;42.520;27.448;2024-03-07T15:02:54;21.07;;;10.93;;
8574;SDS011;4325;42.520;27.448;2024-03-07T15:05:23;19.10;;;10.80;;
8574;SDS011;4325;42.520;27.448;2024-03-07T15:07:51;19.30;;;10.30;;